sensor_id;sensor_type;location;lat;lon;timestamp;P1;durP1;ratioP1;P2;durP2;ratioP2
8694;SDS011;65580;49.446;6.854;2023-02-28T00:01:38;1.85;;;0.85;;
8694;SDS011;65580;49.446;6.854;2023-02-28T00:05:45;3.13;;;1.05;;
8694;SDS011;65580;49.446;6.854;2023-02-28T00:09:51;1.88;;;1.10;;
8694;SDS011;65580;49.446;6.854;2023-02-28T00:13:55;1.67;;;0.95;;
8694;SDS011;65580;49.446;6.854;2023-02-28T00:18:04;1.52;;;1.20;;
8694;SDS011;65580;49.446;6.854;2023-02-28T00:22:08;1.00;;;0.80;;
8694;SDS011;65580;49.446;6.854;2023-02-28T00:26:13;2.58;;;0.95;;
8694;SDS011;65580;49.446;6.854;2023-02-28T00:30:17;5.28;;;1.10;;
8694;SDS011;65580;49.446;6.854;2023-02-28T00:34:22;1.20;;;0.90;;
8694;SDS011;65580;49.446;6.854;2023-02-28T00:38:26;1.23;;;0.93;;
8694;SDS011;65580;49.446;6.854;2023-02-28T00:42:31;3.85;;;1.50;;
8694;SDS011;65580;49.446;6.854;2023-02-28T00:46:35;2.95;;;1.17;;
8694;SDS011;65580;49.446;6.854;2023-02-28T00:50:39;2.03;;;1.30;;
8694;SDS011;65580;49.446;6.854;2023-02-28T00:54:46;3.10;;;1.38;;
8694;SDS011;65580;49.446;6.854;2023-02-28T00:58:51;2.20;;;1.30;;
8694;SDS011;65580;49.446;6.854;2023-02-28T01:03:01;1.85;;;1.30;;
8694;SDS011;65580;49.446;6.854;2023-02-28T01:07:07;1.45;;;1.30;;
8694;SDS011;65580;49.446;6.854;2023-02-28T01:11:12;3.72;;;1.40;;
8694;SDS011;65580;49.446;6.854;2023-02-28T01:15:20;1.73;;;1.40;;
8694;SDS011;65580;49.446;6.854;2023-02-28T01:19:25;3.15;;;1.23;;
8694;SDS011;65580;49.446;6.854;2023-02-28T01:23:30;3.03;;;1.17;;
8694;SDS011;65580;49.446;6.854;2023-02-28T01:27:34;3.60;;;1.60;;
8694;SDS011;65580;49.446;6.854;2023-02-28T01:31:40;2.63;;;1.33;;
8694;SDS011;65580;49.446;6.854;2023-02-28T01:35:46;1.73;;;1.42;;
8694;SDS011;65580;49.446;6.854;2023-02-28T01:39:50;2.45;;;1.52;;
8694;SDS011;65580;49.446;6.854;2023-02-28T01:44:00;3.17;;;1.45;;
8694;SDS011;65580;49.446;6.854;2023-02-28T01:48:07;3.05;;;1.70;;
8694;SDS011;65580;49.446;6.854;2023-02-28T01:52:13;2.33;;;1.63;;
8694;SDS011;65580;49.446;6.854;2023-02-28T01:56:22;2.60;;;1.67;;
8694;SDS011;65580;49.446;6.854;2023-02-28T02:00:27;3.03;;;1.73;;
8694;SDS011;65580;49.446;6.854;2023-02-28T02:04:34;2.35;;;1.40;;
8694;SDS011;65580;49.446;6.854;2023-02-28T02:08:42;2.50;;;1.80;;
8694;SDS011;65580;49.446;6.854;2023-02-28T02:17:16;4.68;;;1.90;;
8694;SDS011;65580;49.446;6.854;2023-02-28T02:21:40;2.20;;;1.73;;
8694;SDS011;65580;49.446;6.854;2023-02-28T02:25:58;4.03;;;2.03;;
8694;SDS011;65580;49.446;6.854;2023-02-28T02:30:16;3.67;;;2.10;;
8694;SDS011;65580;49.446;6.854;2023-02-28T02:34:36;6.75;;;2.38;;
8694;SDS011;65580;49.446;6.854;2023-02-28T02:38:47;3.45;;;1.73;;
8694;SDS011;65580;49.446;6.854;2023-02-28T02:42:55;4.72;;;1.65;;
8694;SDS011;65580;49.446;6.854;2023-02-28T02:47:03;4.22;;;2.40;;
8694;SDS011;65580;49.446;6.854;2023-02-28T02:51:13;4.85;;;2.05;;
8694;SDS011;65580;49.446;6.854;2023-02-28T02:55:18;3.78;;;2.40;;
8694;SDS011;65580;49.446;6.854;2023-02-28T02:59:24;5.13;;;2.55;;
8694;SDS011;65580;49.446;6.854;2023-02-28T03:03:28;5.43;;;2.40;;
8694;SDS011;65580;49.446;6.854;2023-02-28T03:07:34;5.22;;;2.03;;
8694;SDS011;65580;49.446;6.854;2023-02-28T03:11:38;4.78;;;2.22;;
8694;SDS011;65580;49.446;6.854;2023-02-28T03:15:46;6.35;;;2.75;;
8694;SDS011;65580;49.446;6.854;2023-02-28T03:20:02;5.90;;;2.40;;
8694;SDS011;65580;49.446;6.854;2023-02-28T03:24:13;4.25;;;2.28;;
8694;SDS011;65580;49.446;6.854;2023-02-28T03:28:19;4.55;;;2.58;;
8694;SDS011;65580;49.446;6.854;2023-02-28T03:32:29;4.35;;;2.60;;
8694;SDS011;65580;49.446;6.854;2023-02-28T03:36:38;3.67;;;2.28;;
8694;SDS011;65580;49.446;6.854;2023-02-28T03:40:49;9.38;;;2.55;;
8694;SDS011;65580;49.446;6.854;2023-02-28T03:44:55;5.75;;;2.75;;
8694;SDS011;65580;49.446;6.854;2023-02-28T03:49:01;5.40;;;2.30;;
8694;SDS011;65580;49.446;6.854;2023-02-28T03:53:15;6.38;;;2.80;;
8694;SDS011;65580;49.446;6.854;2023-02-28T03:57:25;5.40;;;2.42;;
8694;SDS011;65580;49.446;6.854;2023-02-28T04:01:31;3.63;;;2.35;;
8694;SDS011;65580;49.446;6.854;2023-02-28T04:05:44;3.47;;;2.10;;
8694;SDS011;65580;49.446;6.854;2023-02-28T04:09:51;4.50;;;2.47;;
8694;SDS011;65580;49.446;6.854;2023-02-28T04:13:57;4.68;;;2.72;;
8694;SDS011;65580;49.446;6.854;2023-02-28T04:18:00;3.90;;;2.67;;
8694;SDS011;65580;49.446;6.854;2023-02-28T04:22:04;5.25;;;2.95;;
8694;SDS011;65580;49.446;6.854;2023-02-28T04:26:08;8.52;;;3.45;;
8694;SDS011;65580;49.446;6.854;2023-02-28T04:30:12;7.78;;;3.20;;
8694;SDS011;65580;49.446;6.854;2023-02-28T04:34:16;7.38;;;3.78;;
8694;SDS011;65580;49.446;6.854;2023-02-28T04:38:20;8.32;;;3.55;;
8694;SDS011;65580;49.446;6.854;2023-02-28T04:42:24;7.93;;;4.05;;
8694;SDS011;65580;49.446;6.854;2023-02-28T04:46:28;10.77;;;4.40;;
8694;SDS011;65580;49.446;6.854;2023-02-28T04:50:32;8.15;;;4.05;;
8694;SDS011;65580;49.446;6.854;2023-02-28T04:54:36;7.78;;;3.72;;
8694;SDS011;65580;49.446;6.854;2023-02-28T04:58:40;9.60;;;4.72;;
8694;SDS011;65580;49.446;6.854;2023-02-28T05:02:45;7.22;;;3.83;;
8694;SDS011;65580;49.446;6.854;2023-02-28T05:06:49;8.55;;;4.03;;
8694;SDS011;65580;49.446;6.854;2023-02-28T05:10:52;8.32;;;3.88;;
8694;SDS011;65580;49.446;6.854;2023-02-28T05:14:56;8.52;;;4.32;;
8694;SDS011;65580;49.446;6.854;2023-02-28T05:19:01;6.45;;;3.67;;
8694;SDS011;65580;49.446;6.854;2023-02-28T05:23:05;6.93;;;3.30;;
8694;SDS011;65580;49.446;6.854;2023-02-28T05:27:09;7.75;;;3.78;;
8694;SDS011;65580;49.446;6.854;2023-02-28T05:31:13;6.20;;;3.28;;
8694;SDS011;65580;49.446;6.854;2023-02-28T05:35:18;8.23;;;3.85;;
8694;SDS011;65580;49.446;6.854;2023-02-28T05:39:24;8.68;;;3.97;;
8694;SDS011;65580;49.446;6.854;2023-02-28T05:43:28;8.02;;;3.75;;
8694;SDS011;65580;49.446;6.854;2023-02-28T05:47:31;8.43;;;3.70;;
8694;SDS011;65580;49.446;6.854;2023-02-28T05:51:36;9.60;;;4.45;;
8694;SDS011;65580;49.446;6.854;2023-02-28T05:55:41;8.57;;;4.10;;
8694;SDS011;65580;49.446;6.854;2023-02-28T05:59:44;6.35;;;3.55;;
8694;SDS011;65580;49.446;6.854;2023-02-28T06:03:47;7.97;;;3.85;;
8694;SDS011;65580;49.446;6.854;2023-02-28T06:07:53;7.28;;;3.88;;
8694;SDS011;65580;49.446;6.854;2023-02-28T06:11:57;7.57;;;3.40;;
8694;SDS011;65580;49.446;6.854;2023-02-28T06:16:01;6.65;;;3.55;;
8694;SDS011;65580;49.446;6.854;2023-02-28T06:20:05;3.75;;;2.03;;
8694;SDS011;65580;49.446;6.854;2023-02-28T06:24:10;5.93;;;3.55;;
8694;SDS011;65580;49.446;6.854;2023-02-28T06:28:13;5.90;;;2.90;;
8694;SDS011;65580;49.446;6.854;2023-02-28T06:32:16;4.32;;;2.60;;
8694;SDS011;65580;49.446;6.854;2023-02-28T06:36:19;6.22;;;3.40;;
8694;SDS011;65580;49.446;6.854;2023-02-28T06:40:24;6.32;;;3.40;;
8694;SDS011;65580;49.446;6.854;2023-02-28T06:44:27;6.75;;;3.33;;
8694;SDS011;65580;49.446;6.854;2023-02-28T06:48:36;9.18;;;3.45;;
8694;SDS011;65580;49.446;6.854;2023-02-28T06:52:39;5.82;;;3.30;;
8694;SDS011;65580;49.446;6.854;2023-02-28T06:56:43;7.07;;;3.20;;
8694;SDS011;65580;49.446;6.854;2023-02-28T07:00:49;5.57;;;3.20;;
8694;SDS011;65580;49.446;6.854;2023-02-28T07:04:54;5.97;;;3.40;;
8694;SDS011;65580;49.446;6.854;2023-02-28T07:08:56;7.20;;;3.58;;
8694;SDS011;65580;49.446;6.854;2023-02-28T07:13:01;5.63;;;3.05;;
8694;SDS011;65580;49.446;6.854;2023-02-28T07:17:03;5.15;;;3.08;;
8694;SDS011;65580;49.446;6.854;2023-02-28T07:21:07;7.68;;;3.10;;
8694;SDS011;65580;49.446;6.854;2023-02-28T07:25:13;6.90;;;3.60;;
8694;SDS011;65580;49.446;6.854;2023-02-28T07:29:18;8.68;;;3.70;;
8694;SDS011;65580;49.446;6.854;2023-02-28T07:33:21;5.45;;;2.85;;
8694;SDS011;65580;49.446;6.854;2023-02-28T07:37:25;6.72;;;3.42;;
8694;SDS011;65580;49.446;6.854;2023-02-28T07:41:28;8.00;;;3.53;;
8694;SDS011;65580;49.446;6.854;2023-02-28T07:45:33;8.15;;;3.40;;
8694;SDS011;65580;49.446;6.854;2023-02-28T07:49:36;6.60;;;3.00;;
8694;SDS011;65580;49.446;6.854;2023-02-28T07:53:40;5.22;;;2.88;;
8694;SDS011;65580;49.446;6.854;2023-02-28T07:57:43;6.63;;;3.30;;
8694;SDS011;65580;49.446;6.854;2023-02-28T08:01:49;5.60;;;2.85;;
8694;SDS011;65580;49.446;6.854;2023-02-28T08:05:52;4.70;;;2.63;;
8694;SDS011;65580;49.446;6.854;2023-02-28T08:09:56;5.80;;;3.33;;
8694;SDS011;65580;49.446;6.854;2023-02-28T08:13:59;5.70;;;2.90;;
8694;SDS011;65580;49.446;6.854;2023-02-28T08:18:05;4.47;;;2.80;;
8694;SDS011;65580;49.446;6.854;2023-02-28T08:22:11;5.47;;;3.08;;
8694;SDS011;65580;49.446;6.854;2023-02-28T08:26:42;7.57;;;2.85;;
8694;SDS011;65580;49.446;6.854;2023-02-28T08:30:45;6.30;;;3.22;;
8694;SDS011;65580;49.446;6.854;2023-02-28T08:34:50;4.65;;;2.83;;
8694;SDS011;65580;49.446;6.854;2023-02-28T08:38:56;5.32;;;3.15;;
8694;SDS011;65580;49.446;6.854;2023-02-28T08:43:01;4.88;;;2.70;;
8694;SDS011;65580;49.446;6.854;2023-02-28T08:47:05;7.70;;;3.38;;
8694;SDS011;65580;49.446;6.854;2023-02-28T08:51:11;4.78;;;2.65;;
8694;SDS011;65580;49.446;6.854;2023-02-28T08:55:17;5.47;;;3.00;;
8694;SDS011;65580;49.446;6.854;2023-02-28T08:59:21;4.80;;;2.80;;
8694;SDS011;65580;49.446;6.854;2023-02-28T09:03:24;6.82;;;3.13;;
8694;SDS011;65580;49.446;6.854;2023-02-28T09:07:29;6.15;;;3.30;;
8694;SDS011;65580;49.446;6.854;2023-02-28T09:11:33;5.53;;;3.22;;
8694;SDS011;65580;49.446;6.854;2023-02-28T09:19:51;8.88;;;3.42;;
8694;SDS011;65580;49.446;6.854;2023-02-28T09:23:56;6.88;;;3.35;;
8694;SDS011;65580;49.446;6.854;2023-02-28T09:27:58;7.32;;;3.72;;
8694;SDS011;65580;49.446;6.854;2023-02-28T09:32:02;7.40;;;3.60;;
8694;SDS011;65580;49.446;6.854;2023-02-28T09:36:07;6.63;;;2.97;;
8694;SDS011;65580;49.446;6.854;2023-02-28T09:40:12;8.75;;;3.83;;
8694;SDS011;65580;49.446;6.854;2023-02-28T09:44:20;7.55;;;3.17;;
8694;SDS011;65580;49.446;6.854;2023-02-28T09:48:28;7.50;;;3.50;;
8694;SDS011;65580;49.446;6.854;2023-02-28T09:52:36;6.03;;;3.45;;
8694;SDS011;65580;49.446;6.854;2023-02-28T09:56:40;6.65;;;3.17;;
8694;SDS011;65580;49.446;6.854;2023-02-28T10:00:44;6.63;;;3.35;;
8694;SDS011;65580;49.446;6.854;2023-02-28T10:04:53;6.75;;;2.95;;
8694;SDS011;65580;49.446;6.854;2023-02-28T10:08:58;8.45;;;3.42;;
8694;SDS011;65580;49.446;6.854;2023-02-28T10:13:05;5.78;;;3.03;;
8694;SDS011;65580;49.446;6.854;2023-02-28T10:17:15;8.85;;;3.58;;
8694;SDS011;65580;49.446;6.854;2023-02-28T10:21:23;4.75;;;2.92;;
8694;SDS011;65580;49.446;6.854;2023-02-28T10:25:29;5.82;;;3.00;;
8694;SDS011;65580;49.446;6.854;2023-02-28T10:29:34;7.40;;;3.28;;
8694;SDS011;65580;49.446;6.854;2023-02-28T10:33:37;5.95;;;3.20;;
8694;SDS011;65580;49.446;6.854;2023-02-28T10:37:44;5.53;;;3.08;;
8694;SDS011;65580;49.446;6.854;2023-02-28T10:41:48;5.18;;;3.15;;
8694;SDS011;65580;49.446;6.854;2023-02-28T10:45:59;6.25;;;3.33;;
8694;SDS011;65580;49.446;6.854;2023-02-28T10:50:05;5.55;;;3.42;;
8694;SDS011;65580;49.446;6.854;2023-02-28T10:54:14;6.53;;;3.20;;
8694;SDS011;65580;49.446;6.854;2023-02-28T10:58:21;7.93;;;3.25;;
8694;SDS011;65580;49.446;6.854;2023-02-28T11:02:30;5.32;;;3.22;;
8694;SDS011;65580;49.446;6.854;2023-02-28T11:06:39;5.80;;;2.95;;
8694;SDS011;65580;49.446;6.854;2023-02-28T11:10:44;7.40;;;3.20;;
8694;SDS011;65580;49.446;6.854;2023-02-28T11:14:49;6.55;;;3.20;;
8694;SDS011;65580;49.446;6.854;2023-02-28T11:18:55;5.32;;;3.00;;
8694;SDS011;65580;49.446;6.854;2023-02-28T11:23:01;5.93;;;3.15;;
8694;SDS011;65580;49.446;6.854;2023-02-28T11:27:05;5.97;;;3.28;;
8694;SDS011;65580;49.446;6.854;2023-02-28T11:31:16;6.25;;;3.55;;
8694;SDS011;65580;49.446;6.854;2023-02-28T11:35:23;8.40;;;4.20;;
8694;SDS011;65580;49.446;6.854;2023-02-28T11:39:27;6.93;;;3.50;;
8694;SDS011;65580;49.446;6.854;2023-02-28T11:43:34;7.03;;;3.65;;
8694;SDS011;65580;49.446;6.854;2023-02-28T11:47:45;9.27;;;3.72;;
8694;SDS011;65580;49.446;6.854;2023-02-28T11:51:53;7.00;;;4.28;;
8694;SDS011;65580;49.446;6.854;2023-02-28T11:56:05;7.32;;;3.42;;
8694;SDS011;65580;49.446;6.854;2023-02-28T12:00:17;7.28;;;3.22;;
8694;SDS011;65580;49.446;6.854;2023-02-28T12:04:30;7.07;;;3.70;;
8694;SDS011;65580;49.446;6.854;2023-02-28T12:08:44;5.53;;;3.25;;
8694;SDS011;65580;49.446;6.854;2023-02-28T12:12:55;6.22;;;3.88;;
8694;SDS011;65580;49.446;6.854;2023-02-28T12:17:11;6.28;;;3.30;;
8694;SDS011;65580;49.446;6.854;2023-02-28T12:21:21;6.88;;;3.75;;
8694;SDS011;65580;49.446;6.854;2023-02-28T12:25:40;10.02;;;3.80;;
8694;SDS011;65580;49.446;6.854;2023-02-28T12:29:50;8.48;;;4.20;;
8694;SDS011;65580;49.446;6.854;2023-02-28T12:33:56;6.63;;;3.75;;
8694;SDS011;65580;49.446;6.854;2023-02-28T12:38:04;6.60;;;3.60;;
8694;SDS011;65580;49.446;6.854;2023-02-28T12:42:10;7.57;;;4.38;;
8694;SDS011;65580;49.446;6.854;2023-02-28T12:46:17;6.40;;;4.30;;
8694;SDS011;65580;49.446;6.854;2023-02-28T12:50:25;6.25;;;4.00;;
8694;SDS011;65580;49.446;6.854;2023-02-28T12:54:35;8.70;;;3.90;;
8694;SDS011;65580;49.446;6.854;2023-02-28T12:58:43;5.93;;;3.22;;
8694;SDS011;65580;49.446;6.854;2023-02-28T13:07:31;7.15;;;4.13;;
8694;SDS011;65580;49.446;6.854;2023-02-28T13:11:54;7.20;;;3.47;;
8694;SDS011;65580;49.446;6.854;2023-02-28T13:16:01;7.07;;;4.15;;
8694;SDS011;65580;49.446;6.854;2023-02-28T13:20:14;6.78;;;3.60;;
8694;SDS011;65580;49.446;6.854;2023-02-28T13:24:39;7.25;;;3.88;;
8694;SDS011;65580;49.446;6.854;2023-02-28T13:33:26;8.48;;;4.70;;
8694;SDS011;65580;49.446;6.854;2023-02-28T13:37:34;7.53;;;3.70;;
8694;SDS011;65580;49.446;6.854;2023-02-28T13:41:43;8.25;;;4.60;;
8694;SDS011;65580;49.446;6.854;2023-02-28T13:50:27;9.80;;;4.32;;
8694;SDS011;65580;49.446;6.854;2023-02-28T13:54:34;7.55;;;4.25;;
8694;SDS011;65580;49.446;6.854;2023-02-28T14:02:54;14.23;;;4.78;;
8694;SDS011;65580;49.446;6.854;2023-02-28T14:07:08;7.85;;;4.65;;
8694;SDS011;65580;49.446;6.854;2023-02-28T14:11:24;8.75;;;5.18;;
8694;SDS011;65580;49.446;6.854;2023-02-28T14:19:52;7.95;;;4.32;;
8694;SDS011;65580;49.446;6.854;2023-02-28T14:28:31;9.80;;;4.50;;
8694;SDS011;65580;49.446;6.854;2023-02-28T14:32:46;9.23;;;4.70;;
8694;SDS011;65580;49.446;6.854;2023-02-28T14:36:52;8.55;;;5.00;;
8694;SDS011;65580;49.446;6.854;2023-02-28T14:40:58;10.55;;;5.13;;
8694;SDS011;65580;49.446;6.854;2023-02-28T14:45:05;8.30;;;4.35;;
8694;SDS011;65580;49.446;6.854;2023-02-28T14:49:12;8.82;;;4.70;;
8694;SDS011;65580;49.446;6.854;2023-02-28T14:53:18;8.00;;;4.82;;
8694;SDS011;65580;49.446;6.854;2023-02-28T14:57:34;8.80;;;4.38;;
8694;SDS011;65580;49.446;6.854;2023-02-28T15:01:42;5.65;;;3.00;;
8694;SDS011;65580;49.446;6.854;2023-02-28T15:05:51;8.40;;;4.90;;
8694;SDS011;65580;49.446;6.854;2023-02-28T15:10:15;10.65;;;4.85;;
8694;SDS011;65580;49.446;6.854;2023-02-28T15:14:22;9.02;;;4.75;;
8694;SDS011;65580;49.446;6.854;2023-02-28T15:18:31;8.88;;;4.82;;
8694;SDS011;65580;49.446;6.854;2023-02-28T15:22:44;9.43;;;4.65;;
8694;SDS011;65580;49.446;6.854;2023-02-28T15:26:50;8.25;;;4.88;;
8694;SDS011;65580;49.446;6.854;2023-02-28T15:30:58;10.45;;;4.78;;
8694;SDS011;65580;49.446;6.854;2023-02-28T15:35:17;8.70;;;4.57;;
8694;SDS011;65580;49.446;6.854;2023-02-28T15:39:22;9.90;;;5.00;;
8694;SDS011;65580;49.446;6.854;2023-02-28T15:43:27;7.88;;;4.60;;
8694;SDS011;65580;49.446;6.854;2023-02-28T15:47:32;8.98;;;5.57;;
8694;SDS011;65580;49.446;6.854;2023-02-28T15:51:36;8.98;;;4.38;;
8694;SDS011;65580;49.446;6.854;2023-02-28T15:55:40;9.43;;;4.53;;
8694;SDS011;65580;49.446;6.854;2023-02-28T15:59:45;8.65;;;4.32;;
8694;SDS011;65580;49.446;6.854;2023-02-28T16:03:55;8.95;;;4.75;;
8694;SDS011;65580;49.446;6.854;2023-02-28T16:08:06;8.93;;;4.88;;
8694;SDS011;65580;49.446;6.854;2023-02-28T16:12:14;9.93;;;5.50;;
8694;SDS011;65580;49.446;6.854;2023-02-28T16:16:17;9.48;;;4.75;;
8694;SDS011;65580;49.446;6.854;2023-02-28T16:20:23;9.85;;;5.07;;
8694;SDS011;65580;49.446;6.854;2023-02-28T16:24:27;9.63;;;5.15;;
8694;SDS011;65580;49.446;6.854;2023-02-28T16:28:31;9.40;;;4.72;;
8694;SDS011;65580;49.446;6.854;2023-02-28T16:32:35;9.20;;;4.72;;
8694;SDS011;65580;49.446;6.854;2023-02-28T16:36:40;8.85;;;4.63;;
8694;SDS011;65580;49.446;6.854;2023-02-28T16:40:43;11.20;;;4.72;;
8694;SDS011;65580;49.446;6.854;2023-02-28T16:44:47;13.40;;;5.75;;
8694;SDS011;65580;49.446;6.854;2023-02-28T16:48:50;10.88;;;5.28;;
8694;SDS011;65580;49.446;6.854;2023-02-28T16:52:55;11.20;;;5.07;;
8694;SDS011;65580;49.446;6.854;2023-02-28T16:56:58;12.65;;;4.63;;
8694;SDS011;65580;49.446;6.854;2023-02-28T17:01:02;7.90;;;4.43;;
8694;SDS011;65580;49.446;6.854;2023-02-28T17:05:06;9.10;;;4.90;;
8694;SDS011;65580;49.446;6.854;2023-02-28T17:09:12;11.68;;;5.00;;
8694;SDS011;65580;49.446;6.854;2023-02-28T17:13:18;9.10;;;4.35;;
8694;SDS011;65580;49.446;6.854;2023-02-28T17:17:21;9.25;;;4.97;;
8694;SDS011;65580;49.446;6.854;2023-02-28T17:21:24;9.00;;;4.72;;
8694;SDS011;65580;49.446;6.854;2023-02-28T17:25:29;10.95;;;4.55;;
8694;SDS011;65580;49.446;6.854;2023-02-28T17:29:32;11.30;;;4.75;;
8694;SDS011;65580;49.446;6.854;2023-02-28T17:33:35;8.20;;;4.40;;
8694;SDS011;65580;49.446;6.854;2023-02-28T17:37:38;11.85;;;5.00;;
8694;SDS011;65580;49.446;6.854;2023-02-28T17:41:43;10.60;;;4.70;;
8694;SDS011;65580;49.446;6.854;2023-02-28T17:45:46;9.57;;;4.68;;
8694;SDS011;65580;49.446;6.854;2023-02-28T17:49:49;11.30;;;4.85;;
8694;SDS011;65580;49.446;6.854;2023-02-28T17:53:52;9.30;;;4.80;;
8694;SDS011;65580;49.446;6.854;2023-02-28T17:57:57;10.13;;;4.75;;
8694;SDS011;65580;49.446;6.854;2023-02-28T18:02:03;11.48;;;4.80;;
8694;SDS011;65580;49.446;6.854;2023-02-28T18:06:07;10.68;;;4.63;;
8694;SDS011;65580;49.446;6.854;2023-02-28T18:10:16;9.82;;;5.03;;
8694;SDS011;65580;49.446;6.854;2023-02-28T18:14:26;12.15;;;5.35;;
8694;SDS011;65580;49.446;6.854;2023-02-28T18:18:29;15.27;;;6.55;;
8694;SDS011;65580;49.446;6.854;2023-02-28T18:22:33;18.65;;;7.18;;
8694;SDS011;65580;49.446;6.854;2023-02-28T18:26:40;15.15;;;6.22;;
8694;SDS011;65580;49.446;6.854;2023-02-28T18:30:45;16.42;;;6.60;;
8694;SDS011;65580;49.446;6.854;2023-02-28T18:34:48;16.90;;;7.10;;
8694;SDS011;65580;49.446;6.854;2023-02-28T18:38:52;13.98;;;7.13;;
8694;SDS011;65580;49.446;6.854;2023-02-28T18:42:56;30.85;;;14.70;;
8694;SDS011;65580;49.446;6.854;2023-02-28T18:47:01;27.48;;;11.95;;
8694;SDS011;65580;49.446;6.854;2023-02-28T18:51:05;26.35;;;11.35;;
8694;SDS011;65580;49.446;6.854;2023-02-28T18:55:09;25.77;;;11.00;;
8694;SDS011;65580;49.446;6.854;2023-02-28T18:59:19;25.45;;;11.77;;
8694;SDS011;65580;49.446;6.854;2023-02-28T19:03:24;24.08;;;9.55;;
8694;SDS011;65580;49.446;6.854;2023-02-28T19:07:27;20.55;;;9.15;;
8694;SDS011;65580;49.446;6.854;2023-02-28T19:11:31;18.35;;;8.27;;
8694;SDS011;65580;49.446;6.854;2023-02-28T19:15:36;21.48;;;9.07;;
8694;SDS011;65580;49.446;6.854;2023-02-28T19:19:41;16.98;;;7.93;;
8694;SDS011;65580;49.446;6.854;2023-02-28T19:23:46;16.00;;;7.38;;
8694;SDS011;65580;49.446;6.854;2023-02-28T19:27:50;14.38;;;6.75;;
8694;SDS011;65580;49.446;6.854;2023-02-28T19:31:54;15.95;;;6.60;;
8694;SDS011;65580;49.446;6.854;2023-02-28T19:36:00;16.67;;;6.93;;
8694;SDS011;65580;49.446;6.854;2023-02-28T19:40:04;17.02;;;7.10;;
8694;SDS011;65580;49.446;6.854;2023-02-28T19:44:09;15.50;;;6.88;;
8694;SDS011;65580;49.446;6.854;2023-02-28T19:48:12;11.35;;;5.38;;
8694;SDS011;65580;49.446;6.854;2023-02-28T19:52:17;14.10;;;6.28;;
8694;SDS011;65580;49.446;6.854;2023-02-28T19:56:29;13.30;;;6.07;;
8694;SDS011;65580;49.446;6.854;2023-02-28T20:00:33;15.55;;;5.55;;
8694;SDS011;65580;49.446;6.854;2023-02-28T20:04:36;17.75;;;6.28;;
8694;SDS011;65580;49.446;6.854;2023-02-28T20:08:41;17.00;;;6.68;;
8694;SDS011;65580;49.446;6.854;2023-02-28T20:12:45;12.55;;;5.65;;
8694;SDS011;65580;49.446;6.854;2023-02-28T20:16:48;14.57;;;6.32;;
8694;SDS011;65580;49.446;6.854;2023-02-28T20:20:52;14.77;;;6.47;;
8694;SDS011;65580;49.446;6.854;2023-02-28T20:24:57;16.98;;;6.80;;
8694;SDS011;65580;49.446;6.854;2023-02-28T20:29:01;22.98;;;7.80;;
8694;SDS011;65580;49.446;6.854;2023-02-28T20:33:05;15.90;;;6.45;;
8694;SDS011;65580;49.446;6.854;2023-02-28T20:37:09;18.30;;;8.18;;
8694;SDS011;65580;49.446;6.854;2023-02-28T20:41:14;17.23;;;7.20;;
8694;SDS011;65580;49.446;6.854;2023-02-28T20:45:18;21.10;;;9.63;;
8694;SDS011;65580;49.446;6.854;2023-02-28T20:49:21;18.13;;;7.60;;
8694;SDS011;65580;49.446;6.854;2023-02-28T20:53:25;16.48;;;6.47;;
8694;SDS011;65580;49.446;6.854;2023-02-28T20:57:31;16.83;;;6.93;;
8694;SDS011;65580;49.446;6.854;2023-02-28T21:01:34;18.48;;;8.10;;
8694;SDS011;65580;49.446;6.854;2023-02-28T21:05:38;17.48;;;7.28;;
8694;SDS011;65580;49.446;6.854;2023-02-28T21:09:41;22.48;;;9.15;;
8694;SDS011;65580;49.446;6.854;2023-02-28T21:13:46;18.95;;;7.88;;
8694;SDS011;65580;49.446;6.854;2023-02-28T21:17:49;15.43;;;6.90;;
8694;SDS011;65580;49.446;6.854;2023-02-28T21:21:53;16.10;;;7.13;;
8694;SDS011;65580;49.446;6.854;2023-02-28T21:26:00;17.63;;;7.15;;
8694;SDS011;65580;49.446;6.854;2023-02-28T21:30:06;20.63;;;8.43;;
8694;SDS011;65580;49.446;6.854;2023-02-28T21:34:11;21.10;;;8.27;;
8694;SDS011;65580;49.446;6.854;2023-02-28T21:38:15;20.88;;;8.25;;
8694;SDS011;65580;49.446;6.854;2023-02-28T21:42:18;16.65;;;7.43;;
8694;SDS011;65580;49.446;6.854;2023-02-28T21:46:23;17.65;;;7.43;;
8694;SDS011;65580;49.446;6.854;2023-02-28T21:50:28;18.35;;;7.50;;
8694;SDS011;65580;49.446;6.854;2023-02-28T21:54:32;18.13;;;8.05;;
8694;SDS011;65580;49.446;6.854;2023-02-28T21:58:35;16.33;;;6.72;;
8694;SDS011;65580;49.446;6.854;2023-02-28T22:02:40;16.52;;;7.35;;
8694;SDS011;65580;49.446;6.854;2023-02-28T22:06:44;20.38;;;8.05;;
8694;SDS011;65580;49.446;6.854;2023-02-28T22:10:48;15.13;;;6.88;;
8694;SDS011;65580;49.446;6.854;2023-02-28T22:14:51;16.42;;;7.32;;
8694;SDS011;65580;49.446;6.854;2023-02-28T22:18:56;18.10;;;5.28;;
8694;SDS011;65580;49.446;6.854;2023-02-28T22:23:00;16.15;;;6.32;;
8694;SDS011;65580;49.446;6.854;2023-02-28T22:27:03;14.93;;;6.57;;
8694;SDS011;65580;49.446;6.854;2023-02-28T22:31:12;14.35;;;5.47;;
8694;SDS011;65580;49.446;6.854;2023-02-28T22:35:18;17.35;;;6.82;;
8694;SDS011;65580;49.446;6.854;2023-02-28T22:39:22;16.55;;;6.45;;
8694;SDS011;65580;49.446;6.854;2023-02-28T22:43:26;13.88;;;5.75;;
8694;SDS011;65580;49.446;6.854;2023-02-28T22:47:36;14.02;;;6.43;;
8694;SDS011;65580;49.446;6.854;2023-02-28T22:51:40;13.27;;;6.00;;
8694;SDS011;65580;49.446;6.854;2023-02-28T22:55:44;13.80;;;5.40;;
8694;SDS011;65580;49.446;6.854;2023-02-28T22:59:48;12.82;;;5.03;;
8694;SDS011;65580;49.446;6.854;2023-02-28T23:03:52;13.40;;;5.50;;
8694;SDS011;65580;49.446;6.854;2023-02-28T23:07:57;11.25;;;4.97;;
8694;SDS011;65580;49.446;6.854;2023-02-28T23:12:01;11.80;;;5.50;;
8694;SDS011;65580;49.446;6.854;2023-02-28T23:16:05;11.63;;;5.97;;
8694;SDS011;65580;49.446;6.854;2023-02-28T23:24:15;12.18;;;5.43;;
8694;SDS011;65580;49.446;6.854;2023-02-28T23:28:20;12.95;;;6.30;;
8694;SDS011;65580;49.446;6.854;2023-02-28T23:32:25;14.27;;;6.53;;
8694;SDS011;65580;49.446;6.854;2023-02-28T23:36:28;13.23;;;5.65;;
8694;SDS011;65580;49.446;6.854;2023-02-28T23:40:34;12.27;;;5.68;;
8694;SDS011;65580;49.446;6.854;2023-02-28T23:48:41;12.55;;;6.18;;
8694;SDS011;65580;49.446;6.854;2023-02-28T23:52:45;13.05;;;6.05;;
8694;SDS011;65580;49.446;6.854;2023-02-28T23:56:50;13.75;;;5.43;;
